• Join FlightAware (Why Join?)
  • Login
  • US Flag 
01:50AM EDT


 

Airport Tracker/Info


-or-


 

Live Flight TrackerFlight Track Log ✈ AWE997 ✈ 28-Aug-2014 ✈ KDFW - SAEZ / EZE

Flight Track Log - Related Links

Times and Time Zones

All times are in EDT time to prevent confusion due to time zone crossing. See the AWE997 flight status page for this flight to view local times or setup timezone preferences in your user account.

Time Position Orientation Groundspeed Altitude Reporting Facility
EDT Latitude Longitude Course Direction KTS MPH feet Rate Location/Type
09:05PM 32.8743 -97.0519 191° South 180 207 1,900  Level FlightAware ADS-B (KAFW)
09:05PM 32.8674 -97.0535 192° South 185 213 2,200 720 Climbing FlightAware ADS-B (KAFW)
09:05PM 32.8389 -97.0610 192° South 224 258 2,400 960 Climbing FlightAware ADS-B (KAFW)
09:06PM 32.8158 -97.0670 192° South 244 281 2,900 1,560 Climbing FlightAware ADS-B (KAFW)
09:06PM 32.7930 -97.0724 191° South 250 288 3,500 1,980 Climbing FlightAware ADS-B (KAFW)
09:06PM 32.7720 -97.0772 190° South 253 291 4,200 2,220 Climbing FlightAware ADS-B (KAFW)
09:07PM 32.7482 -97.0825 190° South 254 292 5,000 2,400 Climbing FlightAware ADS-B (KAFW)
09:07PM 32.7257 -97.0875 190° South 255 293 5,800 2,400 Climbing FlightAware ADS-B (KAFW)
09:07PM 32.7009 -97.0927 190° South 257 296 6,600 2,100 Climbing FlightAware ADS-B (KAFW)
09:08PM 32.6783 -97.0962 181° South 264 304 7,200 1,800 Climbing FlightAware ADS-B (KAFW)
09:08PM 32.6586 -97.0919 158° South 275 316 7,800 1,920 Climbing FlightAware ADS-B (KAFW)
09:08PM 32.6324 -97.0748 151° Southeast 276 318 8,500 1,860 Climbing FlightAware ADS-B (KAFW)
09:09PM 32.6118 -97.0600 147° Southeast 288 331 9,100 2,040 Climbing FlightAware ADS-B (KAFW)
09:09PM 32.5843 -97.0394 147° Southeast 290 334 9,900 1,440 Climbing FlightAware ADS-B (KAFW)
09:11PM 32.4256 -96.9198 146° Southeast 370 426 12,500 1,680 Climbing FlightAware ADS-B (KAFW)
09:14PM 32.1655 -96.7703 162° South 397 457 17,800 1,920 Climbing FlightAware ADS-B (KHQZ)
09:14PM 32.1101 -96.7493 162° South 404 465 18,700 1,560 Climbing FlightAware ADS-B (KHQZ)
09:15PM 31.9888 -96.7031 161° South 420 483 20,400 1,500 Climbing FlightAware ADS-B (KHOU)
09:15PM 31.9639 -96.6935 161° South 425 489 20,700 1,260 Climbing FlightAware ADS-B (KHQZ)
09:16PM 31.9199 -96.6768 162° South 430 495 21,200 1,500 Climbing FlightAware ADS-B (KCXO)
09:16PM 31.8651 -96.6560 161° South 435 501 22,000 1,440 Climbing FlightAware ADS-B (KCXO)
09:17PM 31.8227 -96.6385 160° South 439 505 22,500 1,320 Climbing FlightAware ADS-B (KCXO)
09:17PM 31.7898 -96.6248 160° South 441 507 22,900 1,500 Climbing FlightAware ADS-B (KUTS)
09:17PM 31.7470 -96.6070 160° South 446 513 23,400 1,560 Climbing FlightAware ADS-B (KCXO)
09:18PM 31.6883 -96.5829 160° South 451 519 24,200 1,500 Climbing FlightAware ADS-B (KCXO)
09:18PM 31.6289 -96.5586 160° South 455 524 24,900 1,500 Climbing FlightAware ADS-B (KCXO)
09:19PM 31.5696 -96.5346 160° South 456 525 25,700 1,260 Climbing FlightAware ADS-B (KCXO)
09:19PM 31.5087 -96.5099 160° South 462 532 26,200 780 Climbing FlightAware ADS-B (KCXO)
09:20PM 31.4469 -96.4850 158° South 475 547 26,500 960 Climbing FlightAware ADS-B (KCXO)
09:20PM 31.3877 -96.4513 150° Southeast 477 549 27,200 1,260 Climbing FlightAware ADS-B (KCXO)
09:21PM 31.3321 -96.4096 146° Southeast 480 552 27,800 1,260 Climbing FlightAware ADS-B (KCXO)
09:21PM 31.2763 -96.3659 146° Southeast 478 550 28,500 1,140 Climbing FlightAware ADS-B (KCXO)
09:22PM 31.2204 -96.3224 146° Southeast 482 555 29,000 960 Climbing FlightAware ADS-B (KCXO)
09:22PM 31.1647 -96.2794 146° Southeast 485 558 29,500 960 Climbing FlightAware ADS-B (KCXO)
09:23PM 31.1099 -96.2374 146° Southeast 488 562 30,000 960 Climbing FlightAware ADS-B (KCXO)
09:23PM 31.0510 -96.1924 146° Southeast 490 564 30,500 960 Climbing FlightAware ADS-B (KCXO)
09:24PM 30.9945 -96.1493 146° Southeast 495 570 31,000 780 Climbing FlightAware ADS-B (KCXO)
09:25PM 30.8775 -96.0602 146° Southeast 504 580 31,700 720 Climbing FlightAware ADS-B (KCXO)
09:25PM 30.8186 -96.0154 146° Southeast 507 583 32,100 1,080 Climbing FlightAware ADS-B (KCXO)
09:26PM 30.7593 -95.9704 146° Southeast 505 581 32,800 1,380 Climbing FlightAware ADS-B (KCXO)
09:26PM 30.7012 -95.9261 146° Southeast 500 575 33,500 1,200 Climbing FlightAware ADS-B (KUTS)
09:27PM 30.6434 -95.8825 146° Southeast 499 574 34,000 960 Climbing FlightAware ADS-B (KUTS)
09:27PM 30.5864 -95.8393 146° Southeast 499 574 34,500 660 Climbing FlightAware ADS-B (KUTS)
09:28PM 30.5271 -95.7946 146° Southeast 502 578 34,700 480 Climbing FlightAware ADS-B (KUTS)
09:28PM 30.4685 -95.7503 146° Southeast 505 581 35,000 300 Climbing FlightAware ADS-B (KUTS)
09:29PM 30.4131 -95.7088 147° Southeast 504 580 35,000  Level FlightAware ADS-B (KHOU)
09:29PM 30.3538 -95.6647 147° Southeast 503 579 35,000  Level FlightAware ADS-B (KHOU)
09:30PM 30.2949 -95.6209 147° Southeast 502 578 35,000  Level FlightAware ADS-B (KHOU)
09:30PM 30.2525 -95.5894 147° Southeast 502 578 35,000  Level FlightAware ADS-B (KUTS)
09:31PM 30.2364 -95.5775 147° Southeast 500 575 35,000  Level FlightAware ADS-B (KSGR)
09:31PM 30.1444 -95.5093 147° Southeast 497 572 35,000  Level FlightAware ADS-B (KSGR)
09:32PM 30.0858 -95.4659 147° Southeast 494 568 35,000  Level FlightAware ADS-B (KSGR)
09:32PM 30.0233 -95.4196 147° Southeast 493 567 35,000  Level FlightAware ADS-B (KSGR)
09:33PM 29.9543 -95.3687 147° Southeast 492 566 35,000  Level FlightAware ADS-B (KSGR)
09:33PM 29.9032 -95.3311 147° Southeast 489 563 35,000  Level FlightAware ADS-B (KSGR)
09:34PM 29.8502 -95.2920 147° Southeast 488 562 35,000  Level FlightAware ADS-B (KEFD)
09:34PM 29.8034 -95.2576 147° Southeast 486 559 35,000  Level FlightAware ADS-B (KEFD)
09:35PM 29.7292 -95.2032 147° Southeast 486 559 35,000  Level FlightAware ADS-B (KSGR)
09:35PM 29.7064 -95.1865 147° Southeast 486 559 35,000  Level FlightAware ADS-B (KSGR)
09:36PM 29.6162 -95.1205 147° Southeast 486 559 35,000  Level FlightAware ADS-B (KEFD)
09:36PM 29.5575 -95.0774 147° Southeast 485 558 35,000  Level FlightAware ADS-B (KEFD)
09:37PM 29.5555 -95.0761 147° Southeast 485 558 35,000  Level FlightAware ADS-B (KSGR)
09:37PM 29.4509 -94.9996 147° Southeast 486 559 35,000  Level FlightAware ADS-B (KEFD)
09:38PM 29.3820 -94.9495 147° Southeast 486 559 35,000  Level FlightAware ADS-B (KEFD)
09:38PM 29.3198 -94.9042 147° Southeast 486 559 35,000  Level FlightAware ADS-B (KHOU)
09:39PM 29.2635 -94.8634 147° Southeast 485 558 35,000  Level FlightAware ADS-B (KHOU)
09:39PM 29.1897 -94.8128 149° Southeast 484 557 35,000  Level FlightAware ADS-B (KCXO)
09:40PM 29.1329 -94.7750 149° Southeast 485 558 35,000  Level FlightAware ADS-B (KCXO)
09:41PM 29.0511 -94.7200 149° Southeast 486 559 35,000  Level FlightAware ADS-B (KHOU)
09:41PM 29.0085 -94.6912 149° Southeast 486 559 35,000  Level FlightAware ADS-B (KUTS)
09:42PM 28.9338 -94.6404 149° Southeast 484 557 35,000  Level FlightAware ADS-B (KHOU)
09:42PM 28.8770 -94.6020 149° Southeast 485 558 35,000  Level FlightAware ADS-B (KHOU)
09:43PM 28.8178 -94.5621 149° Southeast 486 559 35,000  Level FlightAware ADS-B (KHOU)
09:43PM 28.7601 -94.5231 149° Southeast 486 559 35,000  Level FlightAware ADS-B (KHOU)
09:44PM 28.7018 -94.4839 149° Southeast 489 563 35,000  Level FlightAware ADS-B (KHOU)
09:44PM 28.6449 -94.4457 149° Southeast 491 565 35,000  Level FlightAware ADS-B (KHOU)
09:45PM 28.5838 -94.4048 149° Southeast 489 563 35,000  Level FlightAware ADS-B (KHOU)
09:45PM 28.5309 -94.3694 149° Southeast 488 562 35,000  Level FlightAware ADS-B (KHOU)
09:46PM 28.4669 -94.3266 149° Southeast 489 563 35,000  Level FlightAware ADS-B (KHOU)
09:46PM 28.4153 -94.2921 149° Southeast 490 564 35,000  Level FlightAware ADS-B (KHOU)
09:47PM 28.3493 -94.2481 149° Southeast 490 564 35,000  Level FlightAware ADS-B (KHOU)
09:47PM 28.2906 -94.2091 149° Southeast 491 565 35,000  Level FlightAware ADS-B (KHOU)
09:48PM 28.2343 -94.1715 149° Southeast 492 566 35,000  Level FlightAware ADS-B (KHOU)
09:48PM 28.1887 -94.1399 148° Southeast 493 567 35,000  Level FlightAware ADS-B (KHOU)
09:51PM 27.8381 -93.8124 139° Southeast 488 562 35,000  Level FlightAware ADS-B (KHOU)
09:52PM 27.7298 -93.7099 139° Southeast 488 562 35,000  Level FlightAware ADS-B (KHOU)
09:53PM 27.6315 -93.6170 139° Southeast 486 559 35,000  Level FlightAware ADS-B (KHOU)
09:54PM 27.5770 -93.5656 140° Southeast 485 558 35,000  Level FlightAware ADS-B (KHOU)
09:55PM 27.4284 -93.4259 140° Southeast 485 558 35,000  Level FlightAware ADS-B (KHOU)
09:57PM 27.2125 -93.2238 140° Southeast 489 563 35,000  Level FlightAware ADS-B (KHOU)
10:02PM 26.7640 -92.8175 147° Southeast 484 557 35,000  Level FlightAware ADS-B (KHOU)
10:08PM 26.0767 -92.3580 150° Southeast  Level FlightAware Approximate
10:09PM 25.9592 -92.2816 150° Southeast  Level FlightAware Approximate
10:10PM 25.8416 -92.2053 150° Southeast  Level FlightAware Approximate
10:11PM 25.7241 -92.1289 150° Southeast  Level FlightAware Approximate
10:12PM 25.6066 -92.0525 150° Southeast  Level FlightAware Approximate
10:13PM 25.4891 -91.9762 149° Southeast  Level FlightAware Approximate
10:14PM 25.3720 -91.8994 149° Southeast  Level FlightAware Approximate
10:15PM 25.2548 -91.8228 149° Southeast  Level FlightAware Approximate
10:16PM 25.1375 -91.7463 149° Southeast  Level FlightAware Approximate
10:17PM 25.0202 -91.6699 149° Southeast  Level FlightAware Approximate
10:18PM 24.9029 -91.5937 149° Southeast  Level FlightAware Approximate
10:19PM 24.7855 -91.5177 150° Southeast  Level FlightAware Approximate
10:20PM 24.6681 -91.4418 150° Southeast  Level FlightAware Approximate
10:21PM 24.5507 -91.3660 150° Southeast  Level FlightAware Approximate
10:22PM 24.4296 -91.2981 155° Southeast  Level FlightAware Approximate
10:23PM 24.3057 -91.2361 156° South  Level FlightAware Approximate
10:24PM 24.1814 -91.1752 156° South  Level FlightAware Approximate
10:25PM 24.0569 -91.1148 156° South  Level FlightAware Approximate
10:26PM 23.9324 -91.0544 156° South  Level FlightAware Approximate
10:27PM 23.8079 -90.9942 156° South  Level FlightAware Approximate
10:28PM 23.6833 -90.9341 156° South  Level FlightAware Approximate
10:29PM 23.5588 -90.8742 156° South  Level FlightAware Approximate
10:30PM 23.4342 -90.8143 156° South  Level FlightAware Approximate
10:31PM 23.3095 -90.7546 156° South  Level FlightAware Approximate
10:32PM 23.1858 -90.6928 155° Southeast  Level FlightAware Approximate
10:33PM 23.0610 -90.6337 159° South  Level FlightAware Approximate
10:34PM 22.9339 -90.5808 159° South  Level FlightAware Approximate
10:35PM 22.8086 -90.5229 156° South  Level FlightAware Approximate
10:36PM 22.6841 -90.4633 156° South  Level FlightAware Approximate
10:37PM 22.5595 -90.4038 156° South  Level FlightAware Approximate
10:38PM 22.4348 -90.3445 156° South  Level FlightAware Approximate
10:39PM 22.3101 -90.2854 156° South  Level FlightAware Approximate
10:40PM 22.1853 -90.2266 157° South  Level FlightAware Approximate
10:41PM 22.0601 -90.1688 157° South  Level FlightAware Approximate
10:42PM 21.9349 -90.1112 157° South  Level FlightAware Approximate
10:43PM 21.8097 -90.0537 157° South  Level FlightAware Approximate
10:44PM 21.6844 -89.9962 157° South  Level FlightAware Approximate
10:45PM 21.5590 -89.9390 157° South  Level FlightAware Approximate
10:46PM 21.4335 -89.8825 157° South  Level FlightAware Approximate
10:47PM 21.3079 -89.8260 157° South  Level FlightAware Approximate
10:48PM 21.1829 -89.7681 156° South  Level FlightAware Approximate
10:49PM 21.0583 -89.7091 156° South  Level FlightAware Approximate
10:50PM 20.9338 -89.6502 156° South  Level FlightAware Approximate
10:51PM 20.8068 -89.5977 159° South  Level FlightAware Approximate
10:52PM 20.6797 -89.5453 159° South  Level FlightAware Approximate
10:53PM 20.5527 -89.4931 159° South  Level FlightAware Approximate
10:54PM 20.4256 -89.4409 159° South  Level FlightAware Approximate
10:55PM 20.2985 -89.3887 159° South  Level FlightAware Approximate
10:56PM 20.1714 -89.3367 159° South  Level FlightAware Approximate
10:57PM 20.0443 -89.2848 159° South  Level FlightAware Approximate
10:58PM 19.9169 -89.2338 160° South  Level FlightAware Approximate
10:59PM 19.7893 -89.1833 160° South  Level FlightAware Approximate
11:00PM 19.6616 -89.1330 160° South  Level FlightAware Approximate
11:01PM 19.5340 -89.0827 160° South  Level FlightAware Approximate
11:02PM 19.4063 -89.0325 160° South  Level FlightAware Approximate
11:03PM 19.2786 -88.9824 160° South  Level FlightAware Approximate
11:04PM 19.1509 -88.9324 160° South  Level FlightAware Approximate
11:05PM 19.0232 -88.8824 160° South  Level FlightAware Approximate
11:06PM 18.8955 -88.8326 160° South  Level FlightAware Approximate
11:07PM 18.7678 -88.7827 160° South  Level FlightAware Approximate
11:08PM 18.6400 -88.7330 160° South  Level FlightAware Approximate
11:09PM 18.5123 -88.6834 160° South  Level FlightAware Approximate
11:10PM 18.3845 -88.6338 160° South  Level FlightAware Approximate
11:11PM 18.2556 -88.5876 161° South  Level FlightAware Approximate
11:12PM 18.1267 -88.5415 161° South  Level FlightAware Approximate
11:13PM 17.9977 -88.4956 161° South  Level FlightAware Approximate
11:14PM 17.8699 -88.4463 157° South  Level FlightAware Approximate
11:15PM 17.7442 -88.3916 157° South  Level FlightAware Approximate
11:16PM 17.6184 -88.3369 158° South  Level FlightAware Approximate
11:17PM 17.4900 -88.2913 169° South  Level FlightAware Approximate
11:18PM 17.3563 -88.2645 169° South  Level FlightAware Approximate
11:19PM 17.2225 -88.2378 169° South  Level FlightAware Approximate
11:20PM 17.0887 -88.2115 170° South  Level FlightAware Approximate
11:21PM 16.9548 -88.1869 170° South  Level FlightAware Approximate
11:22PM 16.8210 -88.1622 170° South  Level FlightAware Approximate
11:23PM 16.6871 -88.1377 170° South  Level FlightAware Approximate
11:24PM 16.5532 -88.1131 170° South  Level FlightAware Approximate
11:25PM 16.4194 -88.0886 170° South  Level FlightAware Approximate
11:26PM 16.2855 -88.0641 170° South  Level FlightAware Approximate
11:27PM 16.1516 -88.0397 170° South  Level FlightAware Approximate
11:28PM 16.0181 -88.0131 169° South  Level FlightAware Approximate
11:29PM 15.8848 -87.9857 169° South  Level FlightAware Approximate
11:30PM 15.7514 -87.9583 169° South  Level FlightAware Approximate
11:31PM 15.6181 -87.9310 169° South  Level FlightAware Approximate
11:32PM 15.4847 -87.9037 169° South  Level FlightAware Approximate
11:33PM 15.3608 -87.8471 154° Southeast  Level FlightAware Approximate
11:34PM 15.2371 -87.7887 157° South  Level FlightAware Approximate
11:35PM 15.1122 -87.7331 157° South  Level FlightAware Approximate
11:36PM 14.9873 -87.6776 157° South  Level FlightAware Approximate
11:37PM 14.8624 -87.6222 157° South  Level FlightAware Approximate
11:38PM 14.7388 -87.5630 155° Southeast  Level FlightAware Approximate
11:39PM 14.6154 -87.5036 155° Southeast  Level FlightAware Approximate
11:40PM 14.4920 -87.4442 155° Southeast  Level FlightAware Approximate
11:41PM 14.3686 -87.3849 155° Southeast  Level FlightAware Approximate
11:42PM 14.2450 -87.3258 155° Southeast  Level FlightAware Approximate
11:43PM 14.1215 -87.2667 155° Southeast  Level FlightAware Approximate
11:44PM 13.9962 -87.2191 187° South  Level FlightAware Approximate
11:45PM 13.8610 -87.2354 187° South  Level FlightAware Approximate
11:46PM 13.7257 -87.2516 187° South  Level FlightAware Approximate
11:47PM 13.5923 -87.2607 143° Southeast  Level FlightAware Approximate
11:48PM 13.4834 -87.1767 143° Southeast  Level FlightAware Approximate
11:49PM 13.3745 -87.0928 143° Southeast  Level FlightAware Approximate
11:50PM 13.2655 -87.0089 143° Southeast  Level FlightAware Approximate
11:51PM 13.1565 -86.9251 143° Southeast  Level FlightAware Approximate
11:52PM 13.0474 -86.8414 143° Southeast  Level FlightAware Approximate
11:53PM 12.9382 -86.7580 144° Southeast  Level FlightAware Approximate
11:54PM 12.8277 -86.6765 144° Southeast  Level FlightAware Approximate
11:55PM 12.7171 -86.5950 144° Southeast  Level FlightAware Approximate
11:56PM 12.6064 -86.5137 144° Southeast  Level FlightAware Approximate
11:57PM 12.4958 -86.4324 144° Southeast  Level FlightAware Approximate
11:58PM 12.3851 -86.3512 144° Southeast  Level FlightAware Approximate
11:59PM 12.2745 -86.2700 144° Southeast  Level FlightAware Approximate
12:00AM 12.1637 -86.1889 144° Southeast  Level FlightAware Approximate
12:01AM 12.0417 -86.1290 158° South  Level FlightAware Approximate
12:02AM 11.9153 -86.0771 158° South  Level FlightAware Approximate
12:03AM 11.7890 -86.0253 158° South  Level FlightAware Approximate
12:04AM 11.6626 -85.9735 158° South  Level FlightAware Approximate
12:04AM 11.5790 -85.9458 158° South 486 559 37,000  Level FlightAware ADS-B (MRPV / SYQ)
12:05AM 11.5156 -85.9201 158° South 487 560 37,000  Level FlightAware ADS-B (MRPV / SYQ)
12:05AM 11.4559 -85.8959 158° South 486 559 37,000  Level FlightAware ADS-B (MRPV / SYQ)
12:06AM 11.3921 -85.8700 158° South 486 559 37,000  Level FlightAware ADS-B (MRPV / SYQ)
12:06AM 11.2855 -85.8267 158° South 486 559 37,000  Level FlightAware ADS-B (MRPV / SYQ)
12:07AM 11.2017 -85.7927 158° South 485 558 37,000  Level FlightAware ADS-B (MRPV / SYQ)
12:08AM 11.1406 -85.7686 158° South 485 558 37,000  Level FlightAware ADS-B (MRPV / SYQ)
12:08AM 11.0750 -85.7429 158° South 482 555 37,000  Level FlightAware ADS-B (MRPV / SYQ)
12:09AM 11.0122 -85.7179 157° South 481 554 37,000  Level FlightAware ADS-B (MRPV / SYQ)
12:09AM 10.9501 -85.6922 157° South 479 551 37,000  Level FlightAware ADS-B (MRPV / SYQ)
12:10AM 10.8918 -85.6681 157° South 478 550 37,000  Level FlightAware ADS-B (MRPV / SYQ)
12:10AM 10.8402 -85.6469 157° South 478 550 37,000  Level FlightAware ADS-B (MRPV / SYQ)
12:11AM 10.7650 -85.6161 157° South 478 550 37,000  Level FlightAware ADS-B (MRPV / SYQ)
12:11AM 10.7135 -85.5950 158° South 478 550 37,000  Level FlightAware ADS-B (MRPV / SYQ)
12:12AM 10.6416 -85.5657 158° South 478 550 37,000  Level FlightAware ADS-B (MRPV / SYQ)
12:12AM 10.5764 -85.5420 162° South 477 549 37,000  Level FlightAware ADS-B (MRPV / SYQ)
12:13AM 10.5135 -85.5228 163° South 477 549 37,000  Level FlightAware ADS-B (MRPV / SYQ)
12:13AM 10.4506 -85.5046 164° South 478 550 37,000  Level FlightAware ADS-B (MRPV / SYQ)
12:14AM 10.3880 -85.4866 164° South 479 551 37,000  Level FlightAware ADS-B (MRPV / SYQ)
12:14AM 10.3235 -85.4679 164° South 479 551 37,000  Level FlightAware ADS-B (MRPV / SYQ)
12:15AM 10.2571 -85.4488 164° South 479 551 37,000  Level FlightAware ADS-B (MRPV / SYQ)
12:15AM 10.1972 -85.4316 164° South 479 551 37,000  Level FlightAware ADS-B (MRPV / SYQ)
12:16AM 10.1282 -85.4116 163° South 478 550 37,000  Level FlightAware ADS-B (MRPV / SYQ)
12:16AM 10.0674 -85.3941 164° South 477 549 37,000  Level FlightAware ADS-B (MRPV / SYQ)
12:17AM 10.0026 -85.3753 163° South 475 547 37,000  Level FlightAware ADS-B (MRPV / SYQ)
12:17AM 9.9377 -85.3565 163° South 474 545 37,000  Level FlightAware ADS-B (MRPV / SYQ)
12:18AM 9.8444 -85.3295 164° South 472 543 37,000  Level FlightAware ADS-B (MRPV / SYQ)
12:18AM 9.7810 -85.3113 164° South 469 540 37,000  Level FlightAware ADS-B (MRPV / SYQ)
12:19AM 9.7181 -85.2932 164° South 469 540 37,000  Level FlightAware ADS-B (MRPV / SYQ)
12:19AM 9.6553 -85.2751 163° South 470 541 37,000  Level FlightAware ADS-B (MRPV / SYQ)
12:20AM 9.5925 -85.2569 163° South 471 542 37,000  Level FlightAware ADS-B (MRPV / SYQ)
12:20AM 9.5279 -85.2383 164° South 471 542 37,000  Level FlightAware ADS-B (MRPV / SYQ)
12:21AM 9.3893 -85.1984 163° South 478 550 37,000  Level FlightAware ADS-B (MRPV / SYQ)
12:22AM 9.3251 -85.1800 163° South 481 554 37,000  Level FlightAware ADS-B (MRPV / SYQ)
12:22AM 9.2634 -85.1622 164° South 482 555 37,000  Level FlightAware ADS-B (MRPV / SYQ)
12:23AM 9.1977 -85.1434 164° South 481 554 37,000  Level FlightAware ADS-B (MRPV / SYQ)
12:24AM 9.0774 -85.1089 164° South 485 558 37,000  Level FlightAware ADS-B (MRPV / SYQ)
12:24AM 9.0097 -85.0893 164° South 486 559 37,000  Level FlightAware ADS-B (MRPV / SYQ)
12:25AM 8.9373 -85.0686 164° South 484 557 37,000  Level FlightAware ADS-B (MRPV / SYQ)
12:25AM 8.8775 -85.0515 164° South 484 557 37,000  Level FlightAware ADS-B (MRPV / SYQ)
12:26AM 8.8067 -85.0312 163° South 484 557 37,000  Level FlightAware ADS-B (MRPV / SYQ)
12:26AM 8.7453 -85.0135 164° South 486 559 37,000  Level FlightAware ADS-B (MRPV / SYQ)
12:27AM 8.7109 -85.0037 164° South 487 560 37,000  Level FlightAware ADS-B (MRPV / SYQ)
12:27AM 8.6391 -84.9831 164° South 487 560 37,000  Level FlightAware ADS-B (MRPV / SYQ)
12:30AM 8.3647 -84.9038 164° South  Level FlightAware Approximate
12:31AM 8.2340 -84.8660 164° South  Level FlightAware Approximate
12:32AM 8.1033 -84.8283 164° South  Level FlightAware Approximate
12:33AM 7.9726 -84.7905 164° South  Level FlightAware Approximate
12:34AM 7.8419 -84.7528 164° South  Level FlightAware Approximate
12:35AM 7.7112 -84.7151 164° South  Level FlightAware Approximate
12:36AM 7.5806 -84.6775 164° South  Level FlightAware Approximate
12:37AM 7.4499 -84.6398 164° South  Level FlightAware Approximate
12:38AM 7.3191 -84.6022 164° South  Level FlightAware Approximate
12:39AM 7.1884 -84.5646 164° South  Level FlightAware Approximate
12:40AM 7.0577 -84.5270 164° South  Level FlightAware Approximate
12:41AM 6.9270 -84.4895 164° South  Level FlightAware Approximate
12:42AM 6.7963 -84.4519 164° South  Level FlightAware Approximate
12:43AM 6.6656 -84.4144 164° South  Level FlightAware Approximate
12:44AM 6.5349 -84.3769 164° South  Level FlightAware Approximate
12:45AM 6.4042 -84.3395 164° South  Level FlightAware Approximate
12:46AM 6.2734 -84.3020 164° South  Level FlightAware Approximate
12:47AM 6.1427 -84.2646 164° South  Level FlightAware Approximate
12:48AM 6.0120 -84.2271 164° South  Level FlightAware Approximate
12:49AM 5.8812 -84.1898 164° South  Level FlightAware Approximate
12:50AM 5.7505 -84.1524 164° South  Level FlightAware Approximate
12:51AM 5.6198 -84.1150 164° South  Level FlightAware Approximate
12:52AM 5.4890 -84.0777 164° South  Level FlightAware Approximate
12:53AM 5.3583 -84.0403 164° South  Level FlightAware Approximate
12:54AM 5.2275 -84.0030 164° South  Level FlightAware Approximate
12:55AM 5.0968 -83.9657 164° South  Level FlightAware Approximate
12:56AM 4.9661 -83.9284 164° South  Level FlightAware Approximate
12:57AM 4.8353 -83.8911 164° South  Level FlightAware Approximate
12:58AM 4.7045 -83.8539 164° South  Level FlightAware Approximate
12:59AM 4.5738 -83.8166 164° South  Level FlightAware Approximate
01:00AM 4.4430 -83.7794 164° South  Level FlightAware Approximate
01:01AM 4.3123 -83.7422 164° South  Level FlightAware Approximate
01:02AM 4.1815 -83.7050 164° South  Level FlightAware Approximate
01:03AM 4.0507 -83.6678 164° South  Level FlightAware Approximate
01:04AM 3.9200 -83.6306 164° South  Level FlightAware Approximate
01:05AM 3.7892 -83.5935 164° South  Level FlightAware Approximate
01:06AM 3.6585 -83.5563 164° South  Level FlightAware Approximate
01:07AM 3.5277 -83.5192 164° South  Level FlightAware Approximate
01:08AM 3.3969 -83.4820 164° South  Level FlightAware Approximate
01:09AM 3.2661 -83.4449 164° South  Level FlightAware Approximate
01:10AM 3.1353 -83.4080 165° South  Level FlightAware Approximate
01:11AM 3.0043 -83.3718 165° South  Level FlightAware Approximate
01:12AM 2.8733 -83.3355 165° South  Level FlightAware Approximate
01:13AM 2.7423 -83.2993 165° South  Level FlightAware Approximate
01:14AM 2.6112 -83.2631 165° South  Level FlightAware Approximate
01:15AM 2.4802 -83.2269 165° South  Level FlightAware Approximate
01:16AM 2.3492 -83.1907 165° South  Level FlightAware Approximate
01:17AM 2.2182 -83.1545 165° South  Level FlightAware Approximate
01:18AM 2.0871 -83.1184 165° South  Level FlightAware Approximate
01:19AM 1.9561 -83.0822 165° South  Level FlightAware Approximate
01:20AM 1.8251 -83.0460 165° South  Level FlightAware Approximate
01:21AM 1.6940 -83.0099 165° South  Level FlightAware Approximate
01:22AM 1.5630 -82.9737 165° South  Level FlightAware Approximate
01:23AM 1.4320 -82.9376 165° South  Level FlightAware Approximate
01:24AM 1.3063 -82.8861 157° South  Level FlightAware Approximate
01:25AM 1.1813 -82.8327 157° South  Level FlightAware Approximate
01:26AM 1.0563 -82.7793 157° South  Level FlightAware Approximate
01:27AM 0.9313 -82.7259 157° South  Level FlightAware Approximate
01:28AM 0.8059 -82.6723 157° South  Level FlightAware Approximate
01:29AM 0.6805 -82.6187 157° South  Level FlightAware Approximate
01:30AM 0.5551 -82.5651 157° South  Level FlightAware Approximate
01:31AM 0.4297 -82.5115 157° South  Level FlightAware Approximate
01:32AM 0.3043 -82.4579 157° South  Level FlightAware Approximate
01:33AM 0.1789 -82.4043 157° South  Level FlightAware Approximate
01:34AM 0.0534 -82.3507 157° South  Level FlightAware Approximate
01:35AM -0.0720 -82.2971 157° South  Level FlightAware Approximate
01:36AM -0.1974 -82.2435 157° South  Level FlightAware Approximate
01:37AM -0.3228 -82.1899 157° South  Level FlightAware Approximate
01:38AM -0.4482 -82.1363 157° South  Level FlightAware Approximate
01:39AM -0.5736 -82.0827 157° South  Level FlightAware Approximate
01:40AM -0.6990 -82.0291 157° South  Level FlightAware Approximate
01:41AM -0.8245 -81.9755 157° South  Level FlightAware Approximate
01:42AM -0.9499 -81.9219 157° South  Level FlightAware Approximate
01:43AM -1.0753 -81.8683 157° South  Level FlightAware Approximate
01:44AM -1.2007 -81.8147 157° South  Level FlightAware Approximate
01:45AM -1.3261 -81.7611 157° South  Level FlightAware Approximate
01:46AM -1.4515 -81.7075 157° South  Level FlightAware Approximate
01:47AM -1.5769 -81.6538 157° South  Level FlightAware Approximate
01:48AM -1.7023 -81.6002 157° South  Level FlightAware Approximate
01:49AM -1.8277 -81.5466 157° South  Level FlightAware Approximate
01:50AM -1.9536 -81.4927 157° South  Level FlightAware Approximate
01:51AM -2.0794 -81.4389 157° South  Level FlightAware Approximate
01:52AM -2.2052 -81.3850 157° South  Level FlightAware Approximate
01:53AM -2.3310 -81.3312 157° South  Level FlightAware Approximate
01:54AM -2.4569 -81.2773 157° South  Level FlightAware Approximate
01:55AM -2.5827 -81.2234 157° South  Level FlightAware Approximate
01:56AM -2.7085 -81.1695 157° South  Level FlightAware Approximate
01:57AM -2.8343 -81.1156 157° South  Level FlightAware Approximate
01:58AM -2.9602 -81.0617 157° South  Level FlightAware Approximate
01:59AM -3.0860 -81.0078 157° South  Level FlightAware Approximate
02:00AM -3.2118 -80.9539 157° South  Level FlightAware Approximate
02:01AM -3.3376 -80.8999 157° South  Level FlightAware Approximate
02:02AM -3.4634 -80.8459 157° South  Level FlightAware Approximate
02:03AM -3.5892 -80.7920 157° South  Level FlightAware Approximate
02:04AM -3.7150 -80.7380 157° South  Level FlightAware Approximate
02:05AM -3.8408 -80.6840 157° South  Level FlightAware Approximate
02:06AM -3.9666 -80.6299 157° South  Level FlightAware Approximate
02:07AM -4.0924 -80.5759 157° South  Level FlightAware Approximate
02:08AM -4.2181 -80.5218 157° South  Level FlightAware Approximate
02:09AM -4.3439 -80.4678 157° South  Level FlightAware Approximate
02:10AM -4.4697 -80.4137 157° South  Level FlightAware Approximate
02:11AM -4.5955 -80.3596 157° South  Level FlightAware Approximate
02:12AM -4.7212 -80.3054 157° South  Level FlightAware Approximate
02:13AM -4.8470 -80.2513 157° South  Level FlightAware Approximate
02:14AM -4.9728 -80.1971 157° South  Level FlightAware Approximate
02:15AM -5.0985 -80.1429 157° South  Level FlightAware Approximate
02:16AM -5.2243 -80.0887 157° South  Level FlightAware Approximate
02:17AM -5.3500 -80.0345 157° South  Level FlightAware Approximate
02:18AM -5.4758 -79.9802 157° South  Level FlightAware Approximate
02:19AM -5.6015 -79.9259 157° South  Level FlightAware Approximate
02:20AM -5.7272 -79.8716 157° South  Level FlightAware Approximate
02:21AM -5.8530 -79.8173 157° South  Level FlightAware Approximate
02:22AM -5.9787 -79.7629 157° South  Level FlightAware Approximate
02:23AM -6.1044 -79.7086 157° South  Level FlightAware Approximate
02:24AM -6.2301 -79.6542 157° South  Level FlightAware Approximate
02:25AM -6.3558 -79.5997 157° South  Level FlightAware Approximate
02:26AM -6.4815 -79.5453 157° South  Level FlightAware Approximate
02:27AM -6.6072 -79.4908 157° South  Level FlightAware Approximate
02:28AM -6.7329 -79.4363 157° South  Level FlightAware Approximate
02:29AM -6.8586 -79.3818 157° South  Level FlightAware Approximate
02:30AM -6.9843 -79.3272 157° South  Level FlightAware Approximate
02:31AM -7.1099 -79.2726 157° South  Level FlightAware Approximate
02:32AM -7.2356 -79.2180 157° South  Level FlightAware Approximate
02:33AM -7.3612 -79.1633 157° South  Level FlightAware Approximate
02:34AM -7.4869 -79.1086 157° South  Level FlightAware Approximate
02:35AM -7.6125 -79.0539 157° South  Level FlightAware Approximate
02:36AM -7.7382 -78.9992 157° South  Level FlightAware Approximate
02:37AM -7.8638 -78.9444 157° South  Level FlightAware Approximate
02:38AM -7.9894 -78.8895 157° South  Level FlightAware Approximate
02:39AM -8.1152 -78.8346 157° South  Level FlightAware Approximate
02:40AM -8.2411 -78.7796 157° South  Level FlightAware Approximate
02:41AM -8.3669 -78.7246 157° South  Level FlightAware Approximate
02:42AM -8.4927 -78.6696 157° South  Level FlightAware Approximate
02:43AM -8.6185 -78.6145 157° South  Level FlightAware Approximate
02:44AM -8.7443 -78.5593 157° South  Level FlightAware Approximate
02:45AM -8.8701 -78.5042 157° South  Level FlightAware Approximate
02:46AM -8.9958 -78.4490 157° South  Level FlightAware Approximate
02:47AM -9.1216 -78.3938 157° South  Level FlightAware Approximate
02:48AM -9.2474 -78.3385 157° South  Level FlightAware Approximate
02:49AM -9.3731 -78.2832 157° South  Level FlightAware Approximate
02:50AM -9.4989 -78.2278 157° South  Level FlightAware Approximate
02:51AM -9.6246 -78.1724 157° South  Level FlightAware Approximate
02:52AM -9.7503 -78.1170 157° South  Level FlightAware Approximate
02:53AM -9.8760 -78.0615 157° South  Level FlightAware Approximate
02:54AM -10.0018 -78.0060 156° South  Level FlightAware Approximate
02:55AM -10.1275 -77.9504 156° South  Level FlightAware Approximate
02:56AM -10.2531 -77.8948 156° South  Level FlightAware Approximate
02:57AM -10.3788 -77.8392 156° South  Level FlightAware Approximate
02:58AM -10.5045 -77.7835 156° South  Level FlightAware Approximate
02:59AM -10.6301 -77.7277 156° South  Level FlightAware Approximate
03:00AM -10.7558 -77.6719 156° South  Level FlightAware Approximate
03:01AM -10.8814 -77.6161 156° South  Level FlightAware Approximate
03:02AM -11.0071 -77.5602 156° South  Level FlightAware Approximate
03:03AM -11.1327 -77.5043 156° South  Level FlightAware Approximate
03:04AM -11.2583 -77.4483 156° South  Level FlightAware Approximate
03:05AM -11.3839 -77.3923 156° South  Level FlightAware Approximate
03:06AM -11.5095 -77.3362 156° South  Level FlightAware Approximate
03:07AM -11.6351 -77.2801 156° South  Level FlightAware Approximate
03:08AM -11.7606 -77.2239 156° South  Level FlightAware Approximate
03:09AM -11.8862 -77.1677 156° South  Level FlightAware Approximate
03:10AM -12.0124 -77.1133 165° South  Level FlightAware Approximate
03:11AM -12.1447 -77.0766 165° South  Level FlightAware Approximate
03:12AM -12.2770 -77.0400 165° South  Level FlightAware Approximate
03:13AM -12.4093 -77.0033 165° South  Level FlightAware Approximate
03:14AM -12.5416 -76.9665 165° South  Level FlightAware Approximate
03:15AM -12.6740 -76.9298 165° South  Level FlightAware Approximate
03:16AM -12.8063 -76.8930 165° South  Level FlightAware Approximate
03:17AM -12.9386 -76.8561 165° South  Level FlightAware Approximate
03:18AM -13.0709 -76.8192 165° South  Level FlightAware Approximate
03:19AM -13.2031 -76.7823 165° South  Level FlightAware Approximate
03:20AM -13.3354 -76.7454 165° South  Level FlightAware Approximate
03:21AM -13.4677 -76.7083 165° South  Level FlightAware Approximate
03:22AM -13.6000 -76.6713 165° South  Level FlightAware Approximate
03:23AM -13.7322 -76.6342 165° South  Level FlightAware Approximate
03:24AM -13.8645 -76.5971 165° South  Level FlightAware Approximate
03:25AM -13.9967 -76.5599 165° South  Level FlightAware Approximate
03:26AM -14.1290 -76.5227 165° South  Level FlightAware Approximate
03:27AM -14.2612 -76.4854 165° South  Level FlightAware Approximate
03:28AM -14.3935 -76.4481 165° South  Level FlightAware Approximate
03:29AM -14.5257 -76.4108 165° South  Level FlightAware Approximate
03:30AM -14.6579 -76.3734 165° South  Level FlightAware Approximate
03:31AM -14.7902 -76.3360 165° South  Level FlightAware Approximate
03:32AM -14.9224 -76.2985 165° South  Level FlightAware Approximate
03:33AM -15.0546 -76.2609 165° South  Level FlightAware Approximate
03:34AM -15.1868 -76.2234 165° South  Level FlightAware Approximate
03:35AM -15.3190 -76.1858 165° South  Level FlightAware Approximate
03:36AM -15.4512 -76.1481 165° South  Level FlightAware Approximate
03:37AM -15.5834 -76.1104 165° South  Level FlightAware Approximate
03:38AM -15.7155 -76.0726 165° South  Level FlightAware Approximate
03:39AM -15.8477 -76.0348 165° South  Level FlightAware Approximate
03:40AM -15.9799 -75.9969 165° South  Level FlightAware Approximate
03:41AM -16.1120 -75.9590 165° South  Level FlightAware Approximate
03:42AM -16.2442 -75.9211 165° South  Level FlightAware Approximate
03:43AM -16.3763 -75.8830 165° South  Level FlightAware Approximate
03:44AM -16.5084 -75.8450 165° South  Level FlightAware Approximate
03:45AM -16.6406 -75.8068 165° South  Level FlightAware Approximate
03:46AM -16.7727 -75.7687 165° South  Level FlightAware Approximate
03:47AM -16.9048 -75.7305 165° South  Level FlightAware Approximate
03:48AM -17.0369 -75.6922 165° South  Level FlightAware Approximate
03:49AM -17.1690 -75.6538 165° South  Level FlightAware Approximate
03:50AM -17.3011 -75.6154 164° South  Level FlightAware Approximate
03:51AM -17.4332 -75.5770 164° South  Level FlightAware Approximate
03:52AM -17.5653 -75.5385 164° South  Level FlightAware Approximate
03:53AM -17.6973 -75.5000 164° South  Level FlightAware Approximate
03:54AM -17.8294 -75.4613 164° South  Level FlightAware Approximate
03:55AM -17.9615 -75.4227 164° South  Level FlightAware Approximate
03:56AM -18.0935 -75.3839 164° South  Level FlightAware Approximate
03:57AM -18.2256 -75.3452 164° South  Level FlightAware Approximate
03:58AM -18.3576 -75.3063 164° South  Level FlightAware Approximate
03:59AM -18.4896 -75.2674 164° South  Level FlightAware Approximate
04:00AM -18.6216 -75.2285 164° South  Level FlightAware Approximate
04:01AM -18.7537 -75.1894 164° South  Level FlightAware Approximate
04:02AM -18.8857 -75.1504 164° South  Level FlightAware Approximate
04:03AM -19.0176 -75.1112 164° South  Level FlightAware Approximate
04:04AM -19.1496 -75.0720 164° South  Level FlightAware Approximate
04:05AM -19.2816 -75.0327 164° South  Level FlightAware Approximate
04:06AM -19.4136 -74.9934 164° South  Level FlightAware Approximate
04:07AM -19.5455 -74.9540 164° South  Level FlightAware Approximate
04:08AM -19.6775 -74.9145 164° South  Level FlightAware Approximate
04:09AM -19.8094 -74.8750 164° South  Level FlightAware Approximate
04:10AM -19.9414 -74.8354 164° South  Level FlightAware Approximate
04:11AM -20.0733 -74.7958 164° South  Level FlightAware Approximate
04:12AM -20.2052 -74.7560 164° South  Level FlightAware Approximate
04:13AM -20.3371 -74.7162 164° South  Level FlightAware Approximate
04:14AM -20.4690 -74.6764 164° South  Level FlightAware Approximate
04:15AM -20.6009 -74.6364 164° South  Level FlightAware Approximate
04:16AM -20.7328 -74.5964 164° South  Level FlightAware Approximate
04:17AM -20.8647 -74.5564 164° South  Level FlightAware Approximate
04:18AM -20.9965 -74.5162 164° South  Level FlightAware Approximate
04:19AM -21.1284 -74.4760 164° South  Level FlightAware Approximate
04:20AM -21.2602 -74.4357 164° South  Level FlightAware Approximate
04:21AM -21.3920 -74.3954 164° South  Level FlightAware Approximate
04:22AM -21.5239 -74.3549 164° South  Level FlightAware Approximate
04:23AM -21.6557 -74.3145 164° South  Level FlightAware Approximate
04:24AM -21.7875 -74.2739 164° South  Level FlightAware Approximate
04:25AM -21.9193 -74.2332 164° South  Level FlightAware Approximate
04:26AM -22.0511 -74.1925 164° South  Level FlightAware Approximate
04:27AM -22.1828 -74.1517 164° South  Level FlightAware Approximate
04:28AM -22.3146 -74.1108 164° South  Level FlightAware Approximate
04:29AM -22.4463 -74.0699 164° South  Level FlightAware Approximate
04:30AM -22.5781 -74.0288 164° South  Level FlightAware Approximate
04:31AM -22.7098 -73.9877 164° South  Level FlightAware Approximate
04:32AM -22.8415 -73.9465 164° South  Level FlightAware Approximate
04:33AM -22.9732 -73.9053 164° South  Level FlightAware Approximate
04:34AM -23.1049 -73.8639 164° South  Level FlightAware Approximate
04:35AM -23.2366 -73.8225 164° South  Level FlightAware Approximate
04:36AM -23.3683 -73.7810 164° South  Level FlightAware Approximate
04:37AM -23.5000 -73.7394 164° South  Level FlightAware Approximate
04:38AM -23.6316 -73.6977 164° South  Level FlightAware Approximate
04:39AM -23.7633 -73.6559 164° South  Level FlightAware Approximate
04:40AM -23.8949 -73.6141 164° South  Level FlightAware Approximate
04:41AM -24.0266 -73.5721 164° South  Level FlightAware Approximate
04:42AM -24.1582 -73.5301 164° South  Level FlightAware Approximate
04:43AM -24.2898 -73.4880 164° South  Level FlightAware Approximate
04:44AM -24.4214 -73.4458 164° South  Level FlightAware Approximate
04:45AM -24.5529 -73.4035 164° South  Level FlightAware Approximate
04:46AM -24.6845 -73.3612 164° South  Level FlightAware Approximate
04:47AM -24.8160 -73.3187 164° South  Level FlightAware Approximate
04:48AM -24.9476 -73.2762 164° South  Level FlightAware Approximate
04:49AM -25.0791 -73.2335 164° South  Level FlightAware Approximate
04:50AM -25.2106 -73.1908 164° South  Level FlightAware Approximate
04:51AM -25.3421 -73.1480 164° South  Level FlightAware Approximate
04:52AM -25.4736 -73.1050 164° South  Level FlightAware Approximate
04:53AM -25.6051 -73.0620 164° South  Level FlightAware Approximate
04:54AM -25.7366 -73.0189 164° South  Level FlightAware Approximate
04:55AM -25.8680 -72.9757 164° South  Level FlightAware Approximate
04:56AM -25.9995 -72.9324 164° South  Level FlightAware Approximate
04:57AM -26.1309 -72.8890 163° South  Level FlightAware Approximate
04:58AM -26.2623 -72.8455 163° South  Level FlightAware Approximate
04:59AM -26.3937 -72.8019 163° South  Level FlightAware Approximate
05:00AM -26.5251 -72.7583 163° South  Level FlightAware Approximate
05:01AM -26.6565 -72.7145 163° South  Level FlightAware Approximate
05:02AM -26.7878 -72.6706 163° South  Level FlightAware Approximate
05:03AM -26.9192 -72.6266 163° South  Level FlightAware Approximate
05:04AM -27.0505 -72.5825 163° South  Level FlightAware Approximate
05:05AM -27.1818 -72.5383 163° South  Level FlightAware Approximate
05:06AM -27.3132 -72.4940 163° South  Level FlightAware Approximate
05:07AM -27.4444 -72.4496 163° South  Level FlightAware Approximate
05:08AM -27.5757 -72.4051 163° South  Level FlightAware Approximate
05:09AM -27.7070 -72.3604 163° South  Level FlightAware Approximate
05:10AM -27.8382 -72.3157 163° South  Level FlightAware Approximate
05:11AM -27.9695 -72.2709 163° South  Level FlightAware Approximate
05:12AM -28.1007 -72.2259 163° South  Level FlightAware Approximate
05:13AM -28.2319 -72.1809 163° South  Level FlightAware Approximate
05:14AM -28.3631 -72.1357 163° South  Level FlightAware Approximate
05:15AM -28.4943 -72.0904 163° South  Level FlightAware Approximate
05:16AM -28.6254 -72.0450 163° South  Level FlightAware Approximate
05:17AM -28.7566 -71.9995 163° South  Level FlightAware Approximate
05:18AM -28.8877 -71.9539 163° South  Level FlightAware Approximate
05:19AM -29.0188 -71.9082 163° South  Level FlightAware Approximate
05:20AM -29.1499 -71.8623 163° South  Level FlightAware Approximate
05:21AM -29.2810 -71.8164 163° South  Level FlightAware Approximate
05:22AM -29.4121 -71.7703 163° South  Level FlightAware Approximate
05:23AM -29.5431 -71.7241 163° South  Level FlightAware Approximate
05:24AM -29.6742 -71.6777 163° South  Level FlightAware Approximate
05:25AM -29.8052 -71.6313 163° South  Level FlightAware Approximate
05:26AM -29.9362 -71.5847 163° South  Level FlightAware Approximate
05:27AM -30.0672 -71.5380 163° South  Level FlightAware Approximate
05:28AM -30.1982 -71.4912 163° South  Level FlightAware Approximate
05:29AM -30.2589 -71.3490 116° Southeast  Level Estimated
05:30AM -30.3257 -71.2104 119° Southeast  Level FlightAware Approximate
05:31AM -30.3924 -71.0715 119° Southeast  Level FlightAware Approximate
05:32AM -30.4590 -70.9326 119° Southeast  Level FlightAware Approximate
05:33AM -30.5254 -70.7934 119° Southeast  Level FlightAware Approximate
05:34AM -30.5916 -70.6540 119° Southeast  Level FlightAware Approximate
05:35AM -30.6577 -70.5144 119° Southeast  Level FlightAware Approximate
05:36AM -30.7237 -70.3747 119° Southeast  Level FlightAware Approximate
05:37AM -30.7826 -70.2307 117° Southeast  Level Estimated
05:38AM -30.8443 -70.0881 117° Southeast  Level FlightAware Approximate
05:39AM -30.9058 -69.9454 117° Southeast  Level FlightAware Approximate
05:40AM -30.9672 -69.8025 117° Southeast  Level FlightAware Approximate
05:41AM -31.0284 -69.6594 117° Southeast  Level FlightAware Approximate
05:42AM -31.0895 -69.5161 116° Southeast  Level FlightAware Approximate
05:43AM -31.1504 -69.3726 116° Southeast  Level FlightAware Approximate
05:44AM -31.2109 -69.2294 116° Southeast  Level FlightAware Approximate
05:45AM -31.2712 -69.0861 116° Southeast  Level FlightAware Approximate
05:46AM -31.3314 -68.9426 116° Southeast  Level FlightAware Approximate
05:47AM -31.3915 -68.7989 116° Southeast  Level FlightAware Approximate
05:48AM -31.4514 -68.6550 116° Southeast  Level FlightAware Approximate
05:49AM -31.5111 -68.5109 116° Southeast  Level FlightAware Approximate
05:50AM -31.5672 -68.3647 114° Southeast  Level Estimated
05:51AM -31.6232 -68.2184 114° Southeast  Level FlightAware Approximate
05:52AM -31.6789 -68.0719 114° Southeast  Level FlightAware Approximate
05:53AM -31.7345 -67.9252 114° Southeast  Level FlightAware Approximate
05:54AM -31.7900 -67.7783 114° Southeast  Level FlightAware Approximate
05:55AM -31.8452 -67.6313 114° Southeast  Level FlightAware Approximate
05:56AM -31.9003 -67.4841 114° Southeast  Level FlightAware Approximate
05:57AM -31.9552 -67.3367 114° Southeast  Level FlightAware Approximate
05:58AM -32.0100 -67.1891 114° Southeast  Level FlightAware Approximate
05:59AM -32.0646 -67.0414 114° Southeast  Level FlightAware Approximate
06:00AM -32.1190 -66.8935 114° Southeast  Level FlightAware Approximate
06:01AM -32.1732 -66.7454 113° Southeast  Level FlightAware Approximate
06:02AM -32.2273 -66.5971 113° Southeast  Level FlightAware Approximate
06:03AM -32.2812 -66.4486 113° Southeast  Level FlightAware Approximate
06:04AM -32.3349 -66.3000 113° Southeast  Level FlightAware Approximate
06:05AM -32.3884 -66.1512 113° Southeast  Level FlightAware Approximate
06:06AM -32.4418 -66.0022 113° Southeast  Level FlightAware Approximate
06:07AM -32.4950 -65.8531 113° Southeast  Level FlightAware Approximate
06:08AM -32.5480 -65.7038 113° Southeast  Level FlightAware Approximate
06:09AM -32.6008 -65.5543 113° Southeast  Level FlightAware Approximate
06:10AM -32.6535 -65.4046 113° Southeast  Level FlightAware Approximate
06:11AM -32.7060 -65.2547 113° Southeast  Level FlightAware Approximate
06:12AM -32.7583 -65.1047 113° Southeast  Level FlightAware Approximate
06:13AM -32.8104 -64.9545 112° Southeast  Level FlightAware Approximate
06:14AM -32.8624 -64.8041 112° Southeast  Level FlightAware Approximate
06:15AM -32.9141 -64.6535 112° Southeast  Level FlightAware Approximate
06:16AM -32.9657 -64.5028 112° Southeast  Level FlightAware Approximate
06:17AM -33.0171 -64.3519 112° Southeast  Level FlightAware Approximate
06:18AM -33.0683 -64.2008 112° Southeast  Level FlightAware Approximate
06:19AM -33.1194 -64.0495 112° Southeast  Level FlightAware Approximate
06:20AM -33.1702 -63.8981 112° Southeast  Level FlightAware Approximate
06:21AM -33.2209 -63.7465 112° Southeast  Level FlightAware Approximate
06:22AM -33.2714 -63.5947 112° Southeast  Level FlightAware Approximate
06:23AM -33.3217 -63.4427 112° Southeast  Level FlightAware Approximate
06:24AM -33.3718 -63.2906 112° Southeast  Level FlightAware Approximate
06:25AM -33.4218 -63.1382 111° Southeast  Level FlightAware Approximate
06:26AM -33.4715 -62.9857 111° Southeast  Level FlightAware Approximate
06:27AM -33.5211 -62.8331 111° Southeast  Level FlightAware Approximate
06:28AM -33.5704 -62.6802 111° Southeast  Level FlightAware Approximate
06:29AM -33.6196 -62.5272 111° Southeast  Level FlightAware Approximate
06:30AM -33.6686 -62.3740 111° Southeast  Level FlightAware Approximate
06:31AM -33.7174 -62.2207 111° Southeast  Level FlightAware Approximate
06:32AM -33.7660 -62.0671 111° Southeast  Level FlightAware Approximate
06:33AM -33.8145 -61.9134 111° Southeast  Level FlightAware Approximate
06:34AM -33.8627 -61.7595 111° Southeast  Level FlightAware Approximate
06:35AM -33.9108 -61.6055 111° Southeast  Level FlightAware Approximate
06:36AM -33.9586 -61.4512 111° Southeast  Level FlightAware Approximate
06:37AM -34.0063 -61.2968 110° East  Level FlightAware Approximate
06:38AM -34.0537 -61.1423 110° East  Level FlightAware Approximate
06:39AM -34.1012 -60.9876 108° East  Level Estimated
06:40AM -34.1417 -60.8300 107° East  Level FlightAware Approximate
06:41AM -34.1819 -60.6722 107° East  Level FlightAware Approximate
06:42AM -34.2298 -60.5175 109° East  Level Estimated
06:43AM -34.2795 -60.3635 111° Southeast  Level FlightAware Approximate
06:44AM -34.3269 -60.2084 108° East  Level Estimated
06:45AM -34.3666 -60.0501 107° East  Level FlightAware Approximate
06:46AM -34.4143 -59.8949 112° Southeast  Level Estimated
06:47AM -34.4618 -59.7396 109° East  Level Estimated
06:48AM -34.5093 -59.5842 110° East  Level FlightAware Approximate
06:49AM -34.5565 -59.4286 110° East  Level FlightAware Approximate
06:50AM -34.6033 -59.2727 107° East  Level Estimated
06:51AM -34.6500 -59.1166 108° East  Level Estimated
06:52AM -34.6964 -58.9604 112° Southeast  Level Estimated